sensor_id;sensor_type;location;lat;lon;timestamp;P1;durP1;ratioP1;P2;durP2;ratioP2
11817;SDS011;5966;52.402;5.322;2023-03-16T00:01:25;3.20;;;2.80;;
11817;SDS011;5966;52.402;5.322;2023-03-16T00:03:53;4.27;;;2.73;;
11817;SDS011;5966;52.402;5.322;2023-03-16T00:06:21;4.50;;;3.10;;
11817;SDS011;5966;52.402;5.322;2023-03-16T00:08:51;4.27;;;2.57;;
11817;SDS011;5966;52.402;5.322;2023-03-16T00:11:25;4.50;;;2.90;;
11817;SDS011;5966;52.402;5.322;2023-03-16T00:13:53;3.70;;;2.80;;
11817;SDS011;5966;52.402;5.322;2023-03-16T00:16:21;4.80;;;3.13;;
11817;SDS011;5966;52.402;5.322;2023-03-16T00:18:50;3.83;;;2.73;;
11817;SDS011;5966;52.402;5.322;2023-03-16T00:21:18;5.97;;;3.10;;
11817;SDS011;5966;52.402;5.322;2023-03-16T00:23:46;4.50;;;2.97;;
11817;SDS011;5966;52.402;5.322;2023-03-16T00:26:14;3.30;;;2.80;;
11817;SDS011;5966;52.402;5.322;2023-03-16T00:28:43;3.30;;;2.40;;
11817;SDS011;5966;52.402;5.322;2023-03-16T00:31:12;4.33;;;2.80;;
11817;SDS011;5966;52.402;5.322;2023-03-16T00:33:41;4.33;;;2.70;;
11817;SDS011;5966;52.402;5.322;2023-03-16T00:36:09;4.63;;;2.87;;
11817;SDS011;5966;52.402;5.322;2023-03-16T00:38:37;3.47;;;2.80;;
11817;SDS011;5966;52.402;5.322;2023-03-16T00:41:10;4.00;;;2.47;;
11817;SDS011;5966;52.402;5.322;2023-03-16T00:43:41;3.87;;;2.60;;
11817;SDS011;5966;52.402;5.322;2023-03-16T00:46:11;3.20;;;2.40;;
11817;SDS011;5966;52.402;5.322;2023-03-16T00:48:41;4.90;;;2.63;;
11817;SDS011;5966;52.402;5.322;2023-03-16T00:51:11;3.23;;;2.90;;
11817;SDS011;5966;52.402;5.322;2023-03-16T00:53:41;2.80;;;2.50;;
11817;SDS011;5966;52.402;5.322;2023-03-16T00:56:10;4.33;;;2.73;;
11817;SDS011;5966;52.402;5.322;2023-03-16T00:58:39;5.20;;;2.60;;
11817;SDS011;5966;52.402;5.322;2023-03-16T01:01:11;3.23;;;2.83;;
11817;SDS011;5966;52.402;5.322;2023-03-16T01:03:40;3.37;;;2.67;;
11817;SDS011;5966;52.402;5.322;2023-03-16T01:06:09;6.63;;;3.00;;
11817;SDS011;5966;52.402;5.322;2023-03-16T01:08:40;6.33;;;3.60;;
11817;SDS011;5966;52.402;5.322;2023-03-16T01:11:09;3.93;;;2.70;;
11817;SDS011;5966;52.402;5.322;2023-03-16T01:13:38;3.47;;;2.80;;
11817;SDS011;5966;52.402;5.322;2023-03-16T01:16:07;3.23;;;2.87;;
11817;SDS011;5966;52.402;5.322;2023-03-16T01:18:37;5.00;;;3.20;;
11817;SDS011;5966;52.402;5.322;2023-03-16T01:21:05;3.27;;;2.90;;
11817;SDS011;5966;52.402;5.322;2023-03-16T01:23:35;5.50;;;2.90;;
11817;SDS011;5966;52.402;5.322;2023-03-16T01:26:03;6.30;;;3.50;;
11817;SDS011;5966;52.402;5.322;2023-03-16T01:28:33;5.93;;;3.37;;
11817;SDS011;5966;52.402;5.322;2023-03-16T01:31:02;3.50;;;2.80;;
11817;SDS011;5966;52.402;5.322;2023-03-16T01:33:33;3.80;;;3.20;;
11817;SDS011;5966;52.402;5.322;2023-03-16T01:36:04;4.90;;;3.47;;
11817;SDS011;5966;52.402;5.322;2023-03-16T01:38:33;6.17;;;3.07;;
11817;SDS011;5966;52.402;5.322;2023-03-16T01:41:01;5.43;;;3.47;;
11817;SDS011;5966;52.402;5.322;2023-03-16T01:43:30;3.30;;;3.00;;
11817;SDS011;5966;52.402;5.322;2023-03-16T01:46:12;5.97;;;3.60;;
11817;SDS011;5966;52.402;5.322;2023-03-16T01:48:46;5.37;;;3.20;;
11817;SDS011;5966;52.402;5.322;2023-03-16T01:51:24;6.03;;;3.60;;
11817;SDS011;5966;52.402;5.322;2023-03-16T01:53:57;5.63;;;3.60;;
11817;SDS011;5966;52.402;5.322;2023-03-16T01:56:30;6.27;;;3.03;;
11817;SDS011;5966;52.402;5.322;2023-03-16T01:59:05;3.70;;;3.20;;
11817;SDS011;5966;52.402;5.322;2023-03-16T02:01:36;4.97;;;3.60;;
11817;SDS011;5966;52.402;5.322;2023-03-16T02:04:07;5.00;;;3.43;;
11817;SDS011;5966;52.402;5.322;2023-03-16T02:06:45;4.67;;;3.50;;
11817;SDS011;5966;52.402;5.322;2023-03-16T02:09:14;4.27;;;3.83;;
11817;SDS011;5966;52.402;5.322;2023-03-16T02:11:44;5.37;;;3.80;;
11817;SDS011;5966;52.402;5.322;2023-03-16T02:14:13;5.13;;;3.90;;
11817;SDS011;5966;52.402;5.322;2023-03-16T02:16:41;4.43;;;3.63;;
11817;SDS011;5966;52.402;5.322;2023-03-16T02:19:11;4.67;;;3.90;;
11817;SDS011;5966;52.402;5.322;2023-03-16T02:21:46;4.70;;;3.60;;
11817;SDS011;5966;52.402;5.322;2023-03-16T02:24:19;5.17;;;3.70;;
11817;SDS011;5966;52.402;5.322;2023-03-16T02:26:49;4.33;;;3.77;;
11817;SDS011;5966;52.402;5.322;2023-03-16T02:29:27;4.97;;;3.53;;
11817;SDS011;5966;52.402;5.322;2023-03-16T02:32:11;5.07;;;3.60;;
11817;SDS011;5966;52.402;5.322;2023-03-16T02:34:40;4.90;;;3.70;;
11817;SDS011;5966;52.402;5.322;2023-03-16T02:37:09;4.67;;;3.90;;
11817;SDS011;5966;52.402;5.322;2023-03-16T02:39:38;6.63;;;3.30;;
11817;SDS011;5966;52.402;5.322;2023-03-16T02:42:09;5.03;;;3.80;;
11817;SDS011;5966;52.402;5.322;2023-03-16T02:44:43;4.77;;;4.00;;
11817;SDS011;5966;52.402;5.322;2023-03-16T02:47:18;4.90;;;3.60;;
11817;SDS011;5966;52.402;5.322;2023-03-16T02:49:50;6.53;;;3.80;;
11817;SDS011;5966;52.402;5.322;2023-03-16T02:52:18;4.20;;;3.70;;
11817;SDS011;5966;52.402;5.322;2023-03-16T02:54:46;5.10;;;4.00;;
11817;SDS011;5966;52.402;5.322;2023-03-16T02:57:14;4.63;;;3.60;;
11817;SDS011;5966;52.402;5.322;2023-03-16T02:59:44;5.00;;;3.43;;
11817;SDS011;5966;52.402;5.322;2023-03-16T03:02:11;5.10;;;3.50;;
11817;SDS011;5966;52.402;5.322;2023-03-16T03:04:40;7.17;;;3.90;;
11817;SDS011;5966;52.402;5.322;2023-03-16T03:07:11;5.63;;;4.10;;
11817;SDS011;5966;52.402;5.322;2023-03-16T03:09:40;6.30;;;3.97;;
11817;SDS011;5966;52.402;5.322;2023-03-16T03:12:08;5.93;;;4.20;;
11817;SDS011;5966;52.402;5.322;2023-03-16T03:14:36;4.50;;;3.70;;
11817;SDS011;5966;52.402;5.322;2023-03-16T03:17:06;4.47;;;3.77;;
11817;SDS011;5966;52.402;5.322;2023-03-16T03:19:38;6.07;;;3.93;;
11817;SDS011;5966;52.402;5.322;2023-03-16T03:22:06;5.73;;;4.27;;
11817;SDS011;5966;52.402;5.322;2023-03-16T03:24:34;4.23;;;3.83;;
11817;SDS011;5966;52.402;5.322;2023-03-16T03:27:02;3.83;;;3.47;;
11817;SDS011;5966;52.402;5.322;2023-03-16T03:29:31;5.03;;;4.03;;
11817;SDS011;5966;52.402;5.322;2023-03-16T03:32:00;5.10;;;4.00;;
11817;SDS011;5966;52.402;5.322;2023-03-16T03:34:30;4.47;;;3.97;;
11817;SDS011;5966;52.402;5.322;2023-03-16T03:36:58;4.83;;;4.13;;
11817;SDS011;5966;52.402;5.322;2023-03-16T03:39:27;4.07;;;3.67;;
11817;SDS011;5966;52.402;5.322;2023-03-16T03:41:55;4.97;;;3.93;;
11817;SDS011;5966;52.402;5.322;2023-03-16T03:44:23;3.90;;;3.50;;
11817;SDS011;5966;52.402;5.322;2023-03-16T03:46:52;5.03;;;3.73;;
11817;SDS011;5966;52.402;5.322;2023-03-16T03:49:20;4.23;;;3.87;;
11817;SDS011;5966;52.402;5.322;2023-03-16T03:51:49;5.30;;;3.67;;
11817;SDS011;5966;52.402;5.322;2023-03-16T03:54:17;4.20;;;3.83;;
11817;SDS011;5966;52.402;5.322;2023-03-16T03:56:45;4.77;;;3.70;;
11817;SDS011;5966;52.402;5.322;2023-03-16T03:59:13;4.33;;;3.90;;
11817;SDS011;5966;52.402;5.322;2023-03-16T04:01:41;6.33;;;3.80;;
11817;SDS011;5966;52.402;5.322;2023-03-16T04:04:08;4.93;;;3.37;;
11817;SDS011;5966;52.402;5.322;2023-03-16T04:06:36;3.80;;;3.47;;
11817;SDS011;5966;52.402;5.322;2023-03-16T04:09:06;4.33;;;3.77;;
11817;SDS011;5966;52.402;5.322;2023-03-16T04:11:35;4.73;;;3.87;;
11817;SDS011;5966;52.402;5.322;2023-03-16T04:14:03;4.43;;;3.73;;
11817;SDS011;5966;52.402;5.322;2023-03-16T04:16:31;5.27;;;4.03;;
11817;SDS011;5966;52.402;5.322;2023-03-16T04:19:00;6.07;;;4.27;;
11817;SDS011;5966;52.402;5.322;2023-03-16T04:21:28;4.30;;;3.63;;
11817;SDS011;5966;52.402;5.322;2023-03-16T04:23:56;6.47;;;4.13;;
11817;SDS011;5966;52.402;5.322;2023-03-16T04:26:25;4.73;;;3.80;;
11817;SDS011;5966;52.402;5.322;2023-03-16T04:28:53;4.03;;;3.50;;
11817;SDS011;5966;52.402;5.322;2023-03-16T04:31:21;4.80;;;3.90;;
11817;SDS011;5966;52.402;5.322;2023-03-16T04:33:50;5.67;;;3.80;;
11817;SDS011;5966;52.402;5.322;2023-03-16T04:36:19;5.40;;;3.63;;
11817;SDS011;5966;52.402;5.322;2023-03-16T04:38:49;5.50;;;3.93;;
11817;SDS011;5966;52.402;5.322;2023-03-16T04:41:17;4.87;;;4.03;;
11817;SDS011;5966;52.402;5.322;2023-03-16T04:43:47;5.30;;;3.90;;
11817;SDS011;5966;52.402;5.322;2023-03-16T04:46:15;4.53;;;4.00;;
11817;SDS011;5966;52.402;5.322;2023-03-16T04:48:43;5.73;;;4.37;;
11817;SDS011;5966;52.402;5.322;2023-03-16T04:51:11;4.87;;;4.00;;
11817;SDS011;5966;52.402;5.322;2023-03-16T04:53:39;5.53;;;3.70;;
11817;SDS011;5966;52.402;5.322;2023-03-16T04:56:07;5.27;;;3.93;;
11817;SDS011;5966;52.402;5.322;2023-03-16T04:58:35;3.93;;;3.63;;
11817;SDS011;5966;52.402;5.322;2023-03-16T05:01:04;4.07;;;3.67;;
11817;SDS011;5966;52.402;5.322;2023-03-16T05:03:32;6.07;;;3.97;;
11817;SDS011;5966;52.402;5.322;2023-03-16T05:06:00;5.37;;;3.77;;
11817;SDS011;5966;52.402;5.322;2023-03-16T05:08:28;5.33;;;3.30;;
11817;SDS011;5966;52.402;5.322;2023-03-16T05:10:56;4.27;;;3.87;;
11817;SDS011;5966;52.402;5.322;2023-03-16T05:13:25;5.37;;;3.77;;
11817;SDS011;5966;52.402;5.322;2023-03-16T05:15:53;4.80;;;4.00;;
11817;SDS011;5966;52.402;5.322;2023-03-16T05:18:22;5.93;;;4.10;;
11817;SDS011;5966;52.402;5.322;2023-03-16T05:20:51;4.27;;;3.47;;
11817;SDS011;5966;52.402;5.322;2023-03-16T05:23:21;4.87;;;3.80;;
11817;SDS011;5966;52.402;5.322;2023-03-16T05:25:49;6.77;;;4.10;;
11817;SDS011;5966;52.402;5.322;2023-03-16T05:28:17;5.63;;;3.83;;
11817;SDS011;5966;52.402;5.322;2023-03-16T05:30:45;5.10;;;3.93;;
11817;SDS011;5966;52.402;5.322;2023-03-16T05:33:13;5.70;;;3.73;;
11817;SDS011;5966;52.402;5.322;2023-03-16T05:35:42;5.67;;;3.77;;
11817;SDS011;5966;52.402;5.322;2023-03-16T05:38:11;6.07;;;3.90;;
11817;SDS011;5966;52.402;5.322;2023-03-16T05:40:41;6.60;;;4.20;;
11817;SDS011;5966;52.402;5.322;2023-03-16T05:43:09;5.87;;;3.90;;
11817;SDS011;5966;52.402;5.322;2023-03-16T05:45:37;4.63;;;4.00;;
11817;SDS011;5966;52.402;5.322;2023-03-16T05:48:05;8.57;;;4.13;;
11817;SDS011;5966;52.402;5.322;2023-03-16T05:50:33;5.73;;;4.13;;
11817;SDS011;5966;52.402;5.322;2023-03-16T05:53:02;4.73;;;3.40;;
11817;SDS011;5966;52.402;5.322;2023-03-16T05:55:30;4.40;;;3.97;;
11817;SDS011;5966;52.402;5.322;2023-03-16T05:57:58;5.70;;;3.90;;
11817;SDS011;5966;52.402;5.322;2023-03-16T06:00:28;5.43;;;3.67;;
11817;SDS011;5966;52.402;5.322;2023-03-16T06:02:56;5.57;;;3.80;;
11817;SDS011;5966;52.402;5.322;2023-03-16T06:05:24;4.73;;;3.27;;
11817;SDS011;5966;52.402;5.322;2023-03-16T06:07:53;5.13;;;3.50;;
11817;SDS011;5966;52.402;5.322;2023-03-16T06:10:23;6.47;;;3.70;;
11817;SDS011;5966;52.402;5.322;2023-03-16T06:12:52;4.77;;;3.50;;
11817;SDS011;5966;52.402;5.322;2023-03-16T06:15:20;4.00;;;3.40;;
11817;SDS011;5966;52.402;5.322;2023-03-16T06:17:50;5.90;;;3.60;;
11817;SDS011;5966;52.402;5.322;2023-03-16T06:20:18;5.30;;;3.43;;
11817;SDS011;5966;52.402;5.322;2023-03-16T06:22:46;9.77;;;3.53;;
11817;SDS011;5966;52.402;5.322;2023-03-16T06:25:14;4.97;;;3.87;;
11817;SDS011;5966;52.402;5.322;2023-03-16T06:27:43;3.87;;;2.90;;
11817;SDS011;5966;52.402;5.322;2023-03-16T06:30:12;8.67;;;3.80;;
11817;SDS011;5966;52.402;5.322;2023-03-16T06:32:41;6.27;;;3.43;;
11817;SDS011;5966;52.402;5.322;2023-03-16T06:35:10;6.37;;;3.33;;
11817;SDS011;5966;52.402;5.322;2023-03-16T06:37:39;5.47;;;3.70;;
11817;SDS011;5966;52.402;5.322;2023-03-16T06:40:07;5.03;;;3.63;;
11817;SDS011;5966;52.402;5.322;2023-03-16T06:42:36;3.90;;;3.27;;
11817;SDS011;5966;52.402;5.322;2023-03-16T06:45:06;6.80;;;3.53;;
11817;SDS011;5966;52.402;5.322;2023-03-16T06:47:34;5.30;;;3.27;;
11817;SDS011;5966;52.402;5.322;2023-03-16T06:50:03;4.90;;;3.13;;
11817;SDS011;5966;52.402;5.322;2023-03-16T06:52:31;4.33;;;3.03;;
11817;SDS011;5966;52.402;5.322;2023-03-16T06:54:59;3.60;;;3.23;;
11817;SDS011;5966;52.402;5.322;2023-03-16T06:57:27;4.40;;;2.93;;
11817;SDS011;5966;52.402;5.322;2023-03-16T06:59:55;3.70;;;3.23;;
11817;SDS011;5966;52.402;5.322;2023-03-16T07:02:24;4.60;;;3.03;;
11817;SDS011;5966;52.402;5.322;2023-03-16T07:04:52;3.57;;;3.10;;
11817;SDS011;5966;52.402;5.322;2023-03-16T07:07:20;3.20;;;2.90;;
11817;SDS011;5966;52.402;5.322;2023-03-16T07:09:49;3.57;;;3.10;;
11817;SDS011;5966;52.402;5.322;2023-03-16T07:12:17;3.67;;;3.27;;
11817;SDS011;5966;52.402;5.322;2023-03-16T07:14:45;5.43;;;3.03;;
11817;SDS011;5966;52.402;5.322;2023-03-16T07:17:18;5.77;;;3.50;;
11817;SDS011;5966;52.402;5.322;2023-03-16T07:19:48;6.07;;;3.13;;
11817;SDS011;5966;52.402;5.322;2023-03-16T07:22:16;6.50;;;3.40;;
11817;SDS011;5966;52.402;5.322;2023-03-16T07:24:44;5.33;;;2.90;;
11817;SDS011;5966;52.402;5.322;2023-03-16T07:27:12;8.57;;;3.20;;
11817;SDS011;5966;52.402;5.322;2023-03-16T07:29:40;5.67;;;3.30;;
11817;SDS011;5966;52.402;5.322;2023-03-16T07:32:08;5.07;;;2.87;;
11817;SDS011;5966;52.402;5.322;2023-03-16T07:34:36;4.27;;;2.90;;
11817;SDS011;5966;52.402;5.322;2023-03-16T07:37:06;5.03;;;3.00;;
11817;SDS011;5966;52.402;5.322;2023-03-16T07:39:34;3.90;;;2.93;;
11817;SDS011;5966;52.402;5.322;2023-03-16T07:42:02;3.17;;;2.53;;
11817;SDS011;5966;52.402;5.322;2023-03-16T07:44:30;3.70;;;2.40;;
11817;SDS011;5966;52.402;5.322;2023-03-16T07:46:58;3.33;;;2.87;;
11817;SDS011;5966;52.402;5.322;2023-03-16T07:49:27;3.67;;;2.20;;
11817;SDS011;5966;52.402;5.322;2023-03-16T07:51:54;4.03;;;2.73;;
11817;SDS011;5966;52.402;5.322;2023-03-16T07:54:24;6.77;;;2.70;;
11817;SDS011;5966;52.402;5.322;2023-03-16T07:56:52;4.30;;;3.23;;
11817;SDS011;5966;52.402;5.322;2023-03-16T07:59:19;3.83;;;2.83;;
11817;SDS011;5966;52.402;5.322;2023-03-16T08:01:47;5.33;;;3.10;;
11817;SDS011;5966;52.402;5.322;2023-03-16T08:04:15;4.07;;;2.77;;
11817;SDS011;5966;52.402;5.322;2023-03-16T08:06:43;7.97;;;3.43;;
11817;SDS011;5966;52.402;5.322;2023-03-16T08:09:11;4.00;;;2.67;;
11817;SDS011;5966;52.402;5.322;2023-03-16T08:11:40;5.37;;;2.70;;
11817;SDS011;5966;52.402;5.322;2023-03-16T08:14:08;3.13;;;2.50;;
11817;SDS011;5966;52.402;5.322;2023-03-16T08:16:36;5.73;;;2.63;;
11817;SDS011;5966;52.402;5.322;2023-03-16T08:19:04;3.87;;;2.90;;
11817;SDS011;5966;52.402;5.322;2023-03-16T08:21:32;4.83;;;2.87;;
11817;SDS011;5966;52.402;5.322;2023-03-16T08:24:21;4.23;;;2.70;;
11817;SDS011;5966;52.402;5.322;2023-03-16T08:26:50;4.47;;;2.67;;
11817;SDS011;5966;52.402;5.322;2023-03-16T08:29:18;4.50;;;2.60;;
11817;SDS011;5966;52.402;5.322;2023-03-16T08:31:46;4.13;;;2.63;;
11817;SDS011;5966;52.402;5.322;2023-03-16T08:34:14;9.17;;;2.80;;
11817;SDS011;5966;52.402;5.322;2023-03-16T08:36:43;4.20;;;2.80;;
11817;SDS011;5966;52.402;5.322;2023-03-16T08:39:11;2.90;;;2.60;;
11817;SDS011;5966;52.402;5.322;2023-03-16T08:41:39;8.00;;;3.00;;
11817;SDS011;5966;52.402;5.322;2023-03-16T08:44:09;3.23;;;2.70;;
11817;SDS011;5966;52.402;5.322;2023-03-16T08:46:38;3.50;;;2.60;;
11817;SDS011;5966;52.402;5.322;2023-03-16T08:49:07;4.40;;;2.80;;
11817;SDS011;5966;52.402;5.322;2023-03-16T08:51:36;3.77;;;2.70;;
11817;SDS011;5966;52.402;5.322;2023-03-16T08:54:04;5.40;;;2.97;;
11817;SDS011;5966;52.402;5.322;2023-03-16T08:56:32;6.07;;;2.93;;
11817;SDS011;5966;52.402;5.322;2023-03-16T08:59:00;4.73;;;2.63;;
11817;SDS011;5966;52.402;5.322;2023-03-16T09:01:30;4.40;;;2.80;;
11817;SDS011;5966;52.402;5.322;2023-03-16T09:03:59;5.90;;;3.20;;
11817;SDS011;5966;52.402;5.322;2023-03-16T09:06:28;4.77;;;3.00;;
11817;SDS011;5966;52.402;5.322;2023-03-16T09:08:57;6.67;;;2.87;;
11817;SDS011;5966;52.402;5.322;2023-03-16T09:11:25;4.70;;;2.97;;
11817;SDS011;5966;52.402;5.322;2023-03-16T09:13:55;4.70;;;3.30;;
11817;SDS011;5966;52.402;5.322;2023-03-16T09:16:23;4.47;;;2.80;;
11817;SDS011;5966;52.402;5.322;2023-03-16T09:18:53;5.47;;;2.93;;
11817;SDS011;5966;52.402;5.322;2023-03-16T09:21:21;3.63;;;2.90;;
11817;SDS011;5966;52.402;5.322;2023-03-16T09:23:49;4.43;;;3.20;;
11817;SDS011;5966;52.402;5.322;2023-03-16T09:26:17;3.97;;;3.00;;
11817;SDS011;5966;52.402;5.322;2023-03-16T09:28:46;4.10;;;2.53;;
11817;SDS011;5966;52.402;5.322;2023-03-16T09:31:15;5.17;;;2.87;;
11817;SDS011;5966;52.402;5.322;2023-03-16T09:33:45;3.77;;;3.10;;
11817;SDS011;5966;52.402;5.322;2023-03-16T09:36:14;11.67;;;3.10;;
11817;SDS011;5966;52.402;5.322;2023-03-16T09:38:42;4.47;;;3.07;;
11817;SDS011;5966;52.402;5.322;2023-03-16T09:41:14;3.03;;;2.63;;
11817;SDS011;5966;52.402;5.322;2023-03-16T09:43:58;5.47;;;3.57;;
11817;SDS011;5966;52.402;5.322;2023-03-16T09:46:31;3.93;;;2.87;;
11817;SDS011;5966;52.402;5.322;2023-03-16T09:49:03;3.90;;;2.90;;
11817;SDS011;5966;52.402;5.322;2023-03-16T09:51:35;4.23;;;2.77;;
11817;SDS011;5966;52.402;5.322;2023-03-16T09:54:09;4.60;;;2.80;;
11817;SDS011;5966;52.402;5.322;2023-03-16T09:56:43;6.60;;;3.23;;
11817;SDS011;5966;52.402;5.322;2023-03-16T09:59:13;5.33;;;3.00;;
11817;SDS011;5966;52.402;5.322;2023-03-16T10:01:50;5.80;;;3.20;;
11817;SDS011;5966;52.402;5.322;2023-03-16T10:04:32;4.63;;;3.00;;
11817;SDS011;5966;52.402;5.322;2023-03-16T10:07:18;3.00;;;2.70;;
11817;SDS011;5966;52.402;5.322;2023-03-16T10:09:53;3.23;;;2.60;;
11817;SDS011;5966;52.402;5.322;2023-03-16T10:12:24;3.60;;;3.00;;
11817;SDS011;5966;52.402;5.322;2023-03-16T10:14:57;6.93;;;2.97;;
11817;SDS011;5966;52.402;5.322;2023-03-16T10:17:34;4.50;;;3.10;;
11817;SDS011;5966;52.402;5.322;2023-03-16T10:20:05;3.23;;;2.70;;
11817;SDS011;5966;52.402;5.322;2023-03-16T10:22:41;5.40;;;3.23;;
11817;SDS011;5966;52.402;5.322;2023-03-16T10:25:14;3.37;;;2.93;;
11817;SDS011;5966;52.402;5.322;2023-03-16T10:27:46;5.43;;;3.23;;
11817;SDS011;5966;52.402;5.322;2023-03-16T10:30:22;4.93;;;3.07;;
11817;SDS011;5966;52.402;5.322;2023-03-16T10:32:53;5.03;;;3.00;;
11817;SDS011;5966;52.402;5.322;2023-03-16T10:35:28;4.53;;;2.90;;
11817;SDS011;5966;52.402;5.322;2023-03-16T10:38:07;4.57;;;2.50;;
11817;SDS011;5966;52.402;5.322;2023-03-16T10:40:35;3.87;;;3.00;;
11817;SDS011;5966;52.402;5.322;2023-03-16T10:43:06;3.83;;;2.63;;
11817;SDS011;5966;52.402;5.322;2023-03-16T10:45:35;5.50;;;2.90;;
11817;SDS011;5966;52.402;5.322;2023-03-16T10:48:07;5.00;;;2.97;;
11817;SDS011;5966;52.402;5.322;2023-03-16T10:50:39;4.93;;;3.00;;
11817;SDS011;5966;52.402;5.322;2023-03-16T10:53:13;4.30;;;2.90;;
11817;SDS011;5966;52.402;5.322;2023-03-16T10:55:45;2.93;;;2.33;;
11817;SDS011;5966;52.402;5.322;2023-03-16T10:58:21;3.67;;;2.63;;
11817;SDS011;5966;52.402;5.322;2023-03-16T11:00:52;3.33;;;2.73;;
11817;SDS011;5966;52.402;5.322;2023-03-16T11:03:20;3.63;;;2.30;;
11817;SDS011;5966;52.402;5.322;2023-03-16T11:05:56;2.93;;;2.50;;
11817;SDS011;5966;52.402;5.322;2023-03-16T11:08:29;4.60;;;2.67;;
11817;SDS011;5966;52.402;5.322;2023-03-16T11:10:59;4.37;;;2.60;;
11817;SDS011;5966;52.402;5.322;2023-03-16T11:13:35;3.10;;;2.53;;
11817;SDS011;5966;52.402;5.322;2023-03-16T11:16:04;3.90;;;2.93;;
11817;SDS011;5966;52.402;5.322;2023-03-16T11:18:42;4.60;;;2.60;;
11817;SDS011;5966;52.402;5.322;2023-03-16T11:21:14;4.70;;;2.67;;
11817;SDS011;5966;52.402;5.322;2023-03-16T11:23:50;4.10;;;2.70;;
11817;SDS011;5966;52.402;5.322;2023-03-16T11:26:22;3.83;;;2.70;;
11817;SDS011;5966;52.402;5.322;2023-03-16T11:28:55;5.20;;;2.80;;
11817;SDS011;5966;52.402;5.322;2023-03-16T11:31:32;4.13;;;2.50;;
11817;SDS011;5966;52.402;5.322;2023-03-16T11:34:11;3.63;;;2.77;;
11817;SDS011;5966;52.402;5.322;2023-03-16T11:36:43;2.60;;;2.40;;
11817;SDS011;5966;52.402;5.322;2023-03-16T11:39:20;3.70;;;2.70;;
11817;SDS011;5966;52.402;5.322;2023-03-16T11:42:01;3.77;;;2.70;;
11817;SDS011;5966;52.402;5.322;2023-03-16T11:44:41;5.07;;;2.50;;
11817;SDS011;5966;52.402;5.322;2023-03-16T11:47:21;4.53;;;2.53;;
11817;SDS011;5966;52.402;5.322;2023-03-16T11:50:11;7.37;;;2.80;;
11817;SDS011;5966;52.402;5.322;2023-03-16T11:52:44;4.27;;;2.40;;
11817;SDS011;5966;52.402;5.322;2023-03-16T11:55:23;3.23;;;2.57;;
11817;SDS011;5966;52.402;5.322;2023-03-16T11:58:01;4.47;;;2.30;;
11817;SDS011;5966;52.402;5.322;2023-03-16T12:00:39;3.90;;;2.50;;
11817;SDS011;5966;52.402;5.322;2023-03-16T12:06:29;3.43;;;2.70;;
11817;SDS011;5966;52.402;5.322;2023-03-16T12:09:13;3.30;;;2.70;;
11817;SDS011;5966;52.402;5.322;2023-03-16T12:11:55;5.60;;;2.70;;
11817;SDS011;5966;52.402;5.322;2023-03-16T12:14:31;2.87;;;2.40;;
11817;SDS011;5966;52.402;5.322;2023-03-16T12:17:06;4.60;;;2.47;;
11817;SDS011;5966;52.402;5.322;2023-03-16T12:19:40;5.23;;;2.50;;
11817;SDS011;5966;52.402;5.322;2023-03-16T12:22:14;4.83;;;2.70;;
11817;SDS011;5966;52.402;5.322;2023-03-16T12:24:45;3.80;;;2.60;;
11817;SDS011;5966;52.402;5.322;2023-03-16T12:27:16;4.40;;;2.57;;
11817;SDS011;5966;52.402;5.322;2023-03-16T12:29:52;3.67;;;2.50;;
11817;SDS011;5966;52.402;5.322;2023-03-16T12:32:32;3.33;;;2.30;;
11817;SDS011;5966;52.402;5.322;2023-03-16T12:35:14;3.23;;;2.70;;
11817;SDS011;5966;52.402;5.322;2023-03-16T12:37:50;3.97;;;2.87;;
11817;SDS011;5966;52.402;5.322;2023-03-16T12:40:30;4.97;;;2.87;;
11817;SDS011;5966;52.402;5.322;2023-03-16T12:43:05;4.03;;;2.37;;
11817;SDS011;5966;52.402;5.322;2023-03-16T12:45:46;5.23;;;2.40;;
11817;SDS011;5966;52.402;5.322;2023-03-16T12:48:25;3.20;;;2.30;;
11817;SDS011;5966;52.402;5.322;2023-03-16T12:50:56;5.60;;;2.37;;
11817;SDS011;5966;52.402;5.322;2023-03-16T12:53:26;4.20;;;2.50;;
11817;SDS011;5966;52.402;5.322;2023-03-16T12:56:05;2.93;;;2.20;;
11817;SDS011;5966;52.402;5.322;2023-03-16T12:58:40;3.37;;;2.10;;
11817;SDS011;5966;52.402;5.322;2023-03-16T13:01:11;4.37;;;2.47;;
11817;SDS011;5966;52.402;5.322;2023-03-16T13:03:40;4.93;;;2.73;;
11817;SDS011;5966;52.402;5.322;2023-03-16T13:06:15;5.73;;;2.30;;
11817;SDS011;5966;52.402;5.322;2023-03-16T13:08:50;7.40;;;2.47;;
11817;SDS011;5966;52.402;5.322;2023-03-16T13:11:22;2.47;;;1.90;;
11817;SDS011;5966;52.402;5.322;2023-03-16T13:13:52;4.17;;;2.17;;
11817;SDS011;5966;52.402;5.322;2023-03-16T13:16:34;2.13;;;1.80;;
11817;SDS011;5966;52.402;5.322;2023-03-16T13:19:16;3.80;;;2.17;;
11817;SDS011;5966;52.402;5.322;2023-03-16T13:21:59;1.90;;;1.70;;
11817;SDS011;5966;52.402;5.322;2023-03-16T13:24:35;3.30;;;1.97;;
11817;SDS011;5966;52.402;5.322;2023-03-16T13:27:05;2.77;;;1.73;;
11817;SDS011;5966;52.402;5.322;2023-03-16T13:29:52;3.23;;;1.77;;
11817;SDS011;5966;52.402;5.322;2023-03-16T13:32:23;2.80;;;1.70;;
11817;SDS011;5966;52.402;5.322;2023-03-16T13:34:55;3.10;;;1.60;;
11817;SDS011;5966;52.402;5.322;2023-03-16T13:37:26;2.53;;;1.50;;
11817;SDS011;5966;52.402;5.322;2023-03-16T13:39:55;3.57;;;1.60;;
11817;SDS011;5966;52.402;5.322;2023-03-16T13:42:27;2.27;;;1.67;;
11817;SDS011;5966;52.402;5.322;2023-03-16T13:44:58;1.87;;;1.40;;
11817;SDS011;5966;52.402;5.322;2023-03-16T13:47:40;5.63;;;1.60;;
11817;SDS011;5966;52.402;5.322;2023-03-16T13:50:09;3.77;;;1.60;;
11817;SDS011;5966;52.402;5.322;2023-03-16T13:52:39;3.27;;;1.53;;
11817;SDS011;5966;52.402;5.322;2023-03-16T13:55:09;3.93;;;1.60;;
11817;SDS011;5966;52.402;5.322;2023-03-16T13:57:43;3.30;;;1.30;;
11817;SDS011;5966;52.402;5.322;2023-03-16T14:00:15;1.70;;;1.50;;
11817;SDS011;5966;52.402;5.322;2023-03-16T14:02:45;4.03;;;1.50;;
11817;SDS011;5966;52.402;5.322;2023-03-16T14:05:17;1.87;;;1.10;;
11817;SDS011;5966;52.402;5.322;2023-03-16T14:07:49;2.60;;;1.63;;
11817;SDS011;5966;52.402;5.322;2023-03-16T14:10:18;3.60;;;1.40;;
11817;SDS011;5966;52.402;5.322;2023-03-16T14:12:50;3.63;;;1.47;;
11817;SDS011;5966;52.402;5.322;2023-03-16T14:15:21;2.63;;;1.20;;
11817;SDS011;5966;52.402;5.322;2023-03-16T14:17:52;2.57;;;1.30;;
11817;SDS011;5966;52.402;5.322;2023-03-16T14:20:27;3.23;;;1.33;;
11817;SDS011;5966;52.402;5.322;2023-03-16T14:23:00;3.60;;;1.73;;
11817;SDS011;5966;52.402;5.322;2023-03-16T14:25:28;3.13;;;1.27;;
11817;SDS011;5966;52.402;5.322;2023-03-16T14:27:57;4.10;;;1.53;;
11817;SDS011;5966;52.402;5.322;2023-03-16T14:30:28;3.23;;;1.90;;
11817;SDS011;5966;52.402;5.322;2023-03-16T14:32:58;4.03;;;1.33;;
11817;SDS011;5966;52.402;5.322;2023-03-16T14:35:27;1.40;;;1.00;;
11817;SDS011;5966;52.402;5.322;2023-03-16T14:40:50;1.57;;;1.10;;
11817;SDS011;5966;52.402;5.322;2023-03-16T14:43:20;1.77;;;0.93;;
11817;SDS011;5966;52.402;5.322;2023-03-16T14:45:54;2.03;;;1.20;;
11817;SDS011;5966;52.402;5.322;2023-03-16T14:48:23;2.73;;;1.20;;
11817;SDS011;5966;52.402;5.322;2023-03-16T14:50:53;2.10;;;1.10;;
11817;SDS011;5966;52.402;5.322;2023-03-16T14:53:22;2.43;;;1.77;;
11817;SDS011;5966;52.402;5.322;2023-03-16T14:55:53;1.03;;;0.93;;
11817;SDS011;5966;52.402;5.322;2023-03-16T14:58:22;1.80;;;1.20;;
11817;SDS011;5966;52.402;5.322;2023-03-16T15:00:50;2.07;;;1.00;;
11817;SDS011;5966;52.402;5.322;2023-03-16T15:03:30;1.27;;;1.07;;
11817;SDS011;5966;52.402;5.322;2023-03-16T15:06:01;2.37;;;1.10;;
11817;SDS011;5966;52.402;5.322;2023-03-16T15:08:30;3.10;;;1.50;;
11817;SDS011;5966;52.402;5.322;2023-03-16T15:11:03;2.13;;;0.90;;
11817;SDS011;5966;52.402;5.322;2023-03-16T15:13:32;3.23;;;1.03;;
11817;SDS011;5966;52.402;5.322;2023-03-16T15:16:18;2.20;;;1.20;;
11817;SDS011;5966;52.402;5.322;2023-03-16T15:18:48;2.20;;;1.33;;
11817;SDS011;5966;52.402;5.322;2023-03-16T15:21:17;3.43;;;1.17;;
11817;SDS011;5966;52.402;5.322;2023-03-16T15:23:48;6.97;;;1.20;;
11817;SDS011;5966;52.402;5.322;2023-03-16T15:26:17;1.37;;;1.20;;
11817;SDS011;5966;52.402;5.322;2023-03-16T15:28:52;1.93;;;1.33;;